createdAt,value
2023-01-31T00:01:28.441Z,3.50
2023-01-31T00:04:01.563Z,3.72
2023-01-31T00:06:32.371Z,4.30
2023-01-31T00:09:00.230Z,4.75
2023-01-31T00:11:28.731Z,3.92
2023-01-31T00:13:55.982Z,3.78
2023-01-31T00:16:23.115Z,4.53
2023-01-31T00:18:49.895Z,4.10
2023-01-31T00:21:19.549Z,4.07
2023-01-31T00:23:48.030Z,3.83
2023-01-31T00:26:24.506Z,3.15
2023-01-31T00:28:53.387Z,4.10
2023-01-31T00:31:21.977Z,4.07
2023-01-31T00:33:49.793Z,3.80
2023-01-31T00:36:21.588Z,3.50
2023-01-31T00:38:49.793Z,4.20
2023-01-31T00:41:16.377Z,4.22
2023-01-31T00:43:42.999Z,4.50
2023-01-31T00:46:09.638Z,4.30
2023-01-31T00:48:36.308Z,5.28
2023-01-31T00:51:03.237Z,3.97
2023-01-31T00:53:30.077Z,4.05
2023-01-31T00:56:07.164Z,5.03
2023-01-31T00:58:35.087Z,3.88
2023-01-31T01:01:13.651Z,3.67
2023-01-31T01:03:41.789Z,4.55
2023-01-31T01:06:09.410Z,4.78
2023-01-31T01:08:37.613Z,3.80
2023-01-31T01:11:10.032Z,3.90
2023-01-31T01:13:37.455Z,3.70
2023-01-31T01:16:12.987Z,4.35
2023-01-31T01:18:39.952Z,3.60
2023-01-31T01:21:09.576Z,3.80
2023-01-31T01:23:38.073Z,4.20
2023-01-31T01:26:05.382Z,3.88
2023-01-31T01:28:35.422Z,5.15
2023-01-31T01:31:10.169Z,4.18
2023-01-31T01:33:37.443Z,3.95
2023-01-31T01:36:06.752Z,4.15
2023-01-31T01:38:37.741Z,4.65
2023-01-31T01:41:05.155Z,3.40
2023-01-31T01:43:45.630Z,5.20
2023-01-31T01:46:38.979Z,4.32
2023-01-31T01:49:17.915Z,4.05
2023-01-31T01:51:47.232Z,4.50
2023-01-31T01:54:19.556Z,4.63
2023-01-31T01:56:49.288Z,4.75
2023-01-31T01:59:20.872Z,5.13
2023-01-31T02:01:49.433Z,4.63
2023-01-31T02:04:24.278Z,4.78
2023-01-31T02:06:52.216Z,5.47
2023-01-31T02:09:39.852Z,4.13
2023-01-31T02:12:06.872Z,3.80
2023-01-31T02:14:33.473Z,3.83
2023-01-31T02:17:00.066Z,4.65
2023-01-31T02:19:48.298Z,4.35
2023-01-31T02:22:20.927Z,3.88
2023-01-31T02:25:25.631Z,3.53
2023-01-31T02:28:16.623Z,3.80
2023-01-31T02:31:27.709Z,3.67
2023-01-31T02:34:07.626Z,3.50
2023-01-31T02:36:55.914Z,4.22
2023-01-31T02:39:42.897Z,3.20
2023-01-31T02:42:34.020Z,4.47
2023-01-31T02:45:08.807Z,3.85
2023-01-31T02:47:41.559Z,4.07
2023-01-31T02:50:30.948Z,4.40
2023-01-31T02:53:26.839Z,3.63
2023-01-31T02:56:19.156Z,3.67
2023-01-31T02:58:59.047Z,4.43
2023-01-31T03:01:30.978Z,4.78
2023-01-31T03:03:59.727Z,3.58
2023-01-31T03:06:27.026Z,4.25
2023-01-31T03:08:55.624Z,4.30
2023-01-31T03:11:29.453Z,4.53
2023-01-31T03:14:30.638Z,4.30
2023-01-31T03:17:33.571Z,5.05
2023-01-31T03:20:18.739Z,4.40
2023-01-31T03:22:56.875Z,4.50
2023-01-31T03:25:26.791Z,4.85
2023-01-31T03:27:58.552Z,4.90
2023-01-31T03:30:36.375Z,4.15
2023-01-31T03:33:10.792Z,4.35
2023-01-31T03:35:39.741Z,4.65
2023-01-31T03:38:25.368Z,4.60
2023-01-31T03:41:10.315Z,4.57
2023-01-31T03:44:01.556Z,4.68
2023-01-31T03:46:34.924Z,4.57
2023-01-31T03:49:08.743Z,4.75
2023-01-31T03:51:39.477Z,5.65
2023-01-31T03:54:09.409Z,4.82
2023-01-31T03:56:52.254Z,5.03
2023-01-31T03:59:23.041Z,5.18
2023-01-31T04:01:53.357Z,4.72
2023-01-31T04:04:28.303Z,4.70
2023-01-31T04:06:55.173Z,4.35
2023-01-31T04:09:23.191Z,5.00
2023-01-31T04:11:50.546Z,4.95
2023-01-31T04:14:18.021Z,3.90
2023-01-31T04:16:44.692Z,3.03
2023-01-31T04:19:11.895Z,4.38
2023-01-31T04:21:38.653Z,5.63
2023-01-31T04:24:05.522Z,4.30
2023-01-31T04:26:32.289Z,5.47
2023-01-31T04:28:58.906Z,5.47
2023-01-31T04:31:25.761Z,5.95
2023-01-31T04:33:52.461Z,6.03
2023-01-31T04:36:19.111Z,5.60
2023-01-31T04:38:45.685Z,5.78
2023-01-31T04:41:12.287Z,6.63
2023-01-31T04:43:38.860Z,5.40
2023-01-31T04:46:05.481Z,6.78
2023-01-31T04:48:32.083Z,6.50
2023-01-31T04:50:58.652Z,6.53
2023-01-31T04:53:25.318Z,6.82
2023-01-31T04:55:55.443Z,7.22
2023-01-31T04:58:22.919Z,7.20
2023-01-31T05:00:49.882Z,7.60
2023-01-31T05:03:16.778Z,7.70
2023-01-31T05:05:43.483Z,6.57
2023-01-31T05:08:10.117Z,7.25
2023-01-31T05:10:37.002Z,7.30
2023-01-31T05:13:03.606Z,7.70
2023-01-31T05:15:30.254Z,7.28
2023-01-31T05:18:02.702Z,8.02
2023-01-31T05:20:36.482Z,6.93
2023-01-31T05:23:03.845Z,7.13
2023-01-31T05:25:31.507Z,6.57
2023-01-31T05:27:58.648Z,8.40
2023-01-31T05:30:25.427Z,8.95
2023-01-31T05:32:52.449Z,6.30
2023-01-31T05:35:19.588Z,6.95
2023-01-31T05:37:46.689Z,6.95
2023-01-31T05:40:15.354Z,9.57
2023-01-31T05:42:42.305Z,8.38
2023-01-31T05:45:11.832Z,8.80
2023-01-31T05:47:38.387Z,7.70
2023-01-31T05:50:05.512Z,7.57
2023-01-31T05:52:32.463Z,7.72
2023-01-31T05:54:59.136Z,8.02
2023-01-31T05:57:25.742Z,8.00
2023-01-31T05:59:52.320Z,9.43
2023-01-31T06:02:19.004Z,6.75
2023-01-31T06:04:45.725Z,7.57
2023-01-31T06:07:12.491Z,6.53
2023-01-31T06:09:40.421Z,8.50
2023-01-31T06:12:07.174Z,8.93
2023-01-31T06:14:33.782Z,10.02
2023-01-31T06:17:00.583Z,5.95
2023-01-31T06:19:27.257Z,7.80
2023-01-31T06:21:53.841Z,6.00
2023-01-31T06:24:21.165Z,7.68
2023-01-31T06:26:47.768Z,8.15
2023-01-31T06:29:14.632Z,7.50
2023-01-31T06:31:45.191Z,6.88
2023-01-31T06:34:12.308Z,9.05
2023-01-31T06:36:38.936Z,7.78
2023-01-31T06:39:05.791Z,7.97
2023-01-31T06:41:32.984Z,6.20
2023-01-31T06:43:59.738Z,8.50
2023-01-31T06:46:26.390Z,8.88
2023-01-31T06:48:53.001Z,7.63
2023-01-31T06:51:20.680Z,7.72
2023-01-31T06:53:47.363Z,6.40
2023-01-31T06:56:14.054Z,6.93
2023-01-31T06:58:41.546Z,6.95
2023-01-31T07:01:10.979Z,9.70
2023-01-31T07:03:38.040Z,7.38
2023-01-31T07:06:06.326Z,8.23
2023-01-31T07:08:35.803Z,8.23
2023-01-31T07:11:03.635Z,4.13
2023-01-31T07:13:30.340Z,7.10
2023-01-31T07:15:57.349Z,6.75
2023-01-31T07:18:24.081Z,7.05
2023-01-31T07:20:51.307Z,6.55
2023-01-31T07:23:17.938Z,5.45
2023-01-31T07:25:44.669Z,5.85
2023-01-31T07:28:12.032Z,5.95
2023-01-31T07:30:40.002Z,6.90
2023-01-31T07:33:06.650Z,5.70
2023-01-31T07:35:33.441Z,6.47
2023-01-31T07:38:00.048Z,5.57
2023-01-31T07:40:26.691Z,6.05
2023-01-31T07:43:00.722Z,5.97
2023-01-31T07:45:27.736Z,5.65
2023-01-31T07:47:58.081Z,6.20
2023-01-31T07:50:27.021Z,6.15
2023-01-31T07:52:53.700Z,7.13
2023-01-31T07:55:20.566Z,5.55
2023-01-31T07:57:47.409Z,5.97
2023-01-31T08:00:33.171Z,5.97
2023-01-31T08:03:29.512Z,5.47
2023-01-31T08:05:56.144Z,5.20
2023-01-31T08:08:22.761Z,4.90
2023-01-31T08:10:49.332Z,4.38
2023-01-31T08:13:15.971Z,3.72
2023-01-31T08:15:42.547Z,4.93
2023-01-31T08:18:09.242Z,5.35
2023-01-31T08:20:37.691Z,5.85
2023-01-31T08:23:04.375Z,4.60
2023-01-31T08:25:31.764Z,5.47
2023-01-31T08:27:58.925Z,6.60
2023-01-31T08:30:25.969Z,5.35
2023-01-31T08:32:52.674Z,3.53
2023-01-31T08:35:22.756Z,4.13
2023-01-31T08:37:49.493Z,5.00
2023-01-31T08:40:16.287Z,4.15
2023-01-31T08:42:42.922Z,3.70
2023-01-31T08:45:10.249Z,4.60
2023-01-31T08:47:37.246Z,3.95
2023-01-31T08:50:03.965Z,3.35
2023-01-31T08:52:35.209Z,3.50
2023-01-31T08:55:01.890Z,3.38
2023-01-31T08:57:29.291Z,3.60
2023-01-31T08:59:55.907Z,3.92
2023-01-31T09:02:22.625Z,3.47
2023-01-31T09:04:49.695Z,3.85
2023-01-31T09:07:16.348Z,3.30
2023-01-31T09:09:42.931Z,3.50
2023-01-31T09:12:09.512Z,3.47
2023-01-31T09:14:36.150Z,3.45
2023-01-31T09:17:03.439Z,3.40
2023-01-31T09:19:30.168Z,4.32
2023-01-31T09:21:56.764Z,3.00
2023-01-31T09:24:23.384Z,4.15
2023-01-31T09:26:50.089Z,3.10
2023-01-31T09:29:16.744Z,4.25
2023-01-31T09:31:43.359Z,4.70
2023-01-31T09:34:10.027Z,3.92
2023-01-31T09:36:37.049Z,4.53
2023-01-31T09:39:03.749Z,3.97
2023-01-31T09:41:43.322Z,3.60
2023-01-31T09:44:33.430Z,4.38
2023-01-31T09:47:08.915Z,3.35
2023-01-31T09:49:45.833Z,3.35
2023-01-31T09:52:12.463Z,4.25
2023-01-31T09:54:41.081Z,4.78
2023-01-31T09:57:13.085Z,5.80
2023-01-31T09:59:59.703Z,5.55
2023-01-31T10:02:29.774Z,3.28
2023-01-31T10:05:11.390Z,4.72
2023-01-31T10:07:56.030Z,3.67
2023-01-31T10:10:36.260Z,3.58
2023-01-31T10:13:25.004Z,4.15
2023-01-31T10:15:58.287Z,4.03
2023-01-31T10:18:32.721Z,3.60
2023-01-31T10:21:10.175Z,4.78
2023-01-31T10:23:48.366Z,4.78
2023-01-31T10:26:21.284Z,4.65
2023-01-31T10:29:15.564Z,3.90
2023-01-31T10:31:48.945Z,4.63
2023-01-31T10:34:22.863Z,5.13
2023-01-31T10:37:01.371Z,3.97
2023-01-31T10:39:44.515Z,6.47
2023-01-31T10:42:39.293Z,4.72
2023-01-31T10:45:09.024Z,4.50
2023-01-31T10:47:39.895Z,5.65
2023-01-31T10:50:51.749Z,6.80
2023-01-31T10:53:36.926Z,4.97
2023-01-31T10:56:33.127Z,4.90
2023-01-31T10:59:02.611Z,5.63
2023-01-31T11:01:29.411Z,5.47
2023-01-31T11:03:56.849Z,4.75
2023-01-31T11:06:24.220Z,6.10
2023-01-31T11:08:54.557Z,4.20
2023-01-31T11:11:24.184Z,6.15
2023-01-31T11:14:00.905Z,5.68
2023-01-31T11:16:33.919Z,6.30
2023-01-31T11:19:04.417Z,6.03
2023-01-31T11:21:34.005Z,7.25
2023-01-31T11:24:06.788Z,6.03
2023-01-31T11:26:42.515Z,5.72
2023-01-31T11:29:18.777Z,4.80
2023-01-31T11:31:47.596Z,5.95
2023-01-31T11:34:33.594Z,5.85
2023-01-31T11:37:06.585Z,5.78
2023-01-31T11:39:40.087Z,5.57
2023-01-31T11:42:14.107Z,5.32
2023-01-31T11:44:54.380Z,4.72
2023-01-31T11:47:24.734Z,5.82
2023-01-31T11:49:51.387Z,4.35
2023-01-31T11:52:28.784Z,6.03
2023-01-31T11:54:59.112Z,6.10
2023-01-31T11:57:35.120Z,5.60
2023-01-31T12:00:06.479Z,5.15
2023-01-31T12:02:38.940Z,5.82
2023-01-31T12:05:13.130Z,6.05
2023-01-31T12:07:50.138Z,5.90
2023-01-31T12:10:31.021Z,7.10
2023-01-31T12:13:12.580Z,5.70
2023-01-31T12:15:58.625Z,5.07
2023-01-31T12:18:45.552Z,6.03
2023-01-31T12:21:27.917Z,6.13
2023-01-31T12:24:13.528Z,5.82
2023-01-31T12:26:55.128Z,5.75
2023-01-31T12:30:12.541Z,6.88
2023-01-31T12:32:53.440Z,6.10
2023-01-31T12:35:50.740Z,6.05
2023-01-31T12:38:33.508Z,5.65
2023-01-31T12:41:13.038Z,5.35
2023-01-31T12:44:16.072Z,6.25
2023-01-31T12:47:08.703Z,5.78
2023-01-31T12:50:01.314Z,5.53
2023-01-31T12:52:56.679Z,5.88
2023-01-31T12:55:36.311Z,6.07
2023-01-31T12:58:09.435Z,5.95
2023-01-31T13:00:49.637Z,6.30
2023-01-31T13:03:53.102Z,5.03
2023-01-31T13:06:28.243Z,5.78
2023-01-31T13:09:08.222Z,5.55
2023-01-31T13:11:44.067Z,6.20
2023-01-31T13:14:19.810Z,5.70
2023-01-31T13:16:48.658Z,6.07
2023-01-31T13:19:34.196Z,4.60
2023-01-31T13:22:16.937Z,5.80
2023-01-31T13:24:48.502Z,6.38
2023-01-31T13:27:15.030Z,5.18
2023-01-31T13:30:02.646Z,5.38
2023-01-31T13:32:43.272Z,5.72
2023-01-31T13:35:23.455Z,4.95
2023-01-31T13:37:54.896Z,5.93
2023-01-31T13:40:27.331Z,5.80
2023-01-31T13:42:58.879Z,5.97
2023-01-31T13:45:36.486Z,5.47
2023-01-31T13:48:17.463Z,5.43
2023-01-31T13:50:53.659Z,5.72
2023-01-31T13:53:29.806Z,6.00
2023-01-31T13:55:57.865Z,4.60
2023-01-31T13:58:43.754Z,5.50
2023-01-31T14:01:21.117Z,5.65
2023-01-31T14:04:15.864Z,5.80
2023-01-31T14:07:14.206Z,5.43
2023-01-31T14:10:09.486Z,5.85
2023-01-31T14:12:37.685Z,6.35
2023-01-31T14:15:44.507Z,5.35
2023-01-31T14:18:11.164Z,5.35
2023-01-31T14:20:37.794Z,5.47
2023-01-31T14:23:31.290Z,5.80
2023-01-31T14:25:58.129Z,6.00
2023-01-31T14:28:26.588Z,5.15
2023-01-31T14:30:55.156Z,5.75
2023-01-31T14:33:27.797Z,5.30
2023-01-31T14:36:00.156Z,6.00
2023-01-31T14:38:41.788Z,5.15
2023-01-31T14:41:35.712Z,5.80
2023-01-31T14:44:22.513Z,5.63
2023-01-31T14:47:07.823Z,6.60
2023-01-31T14:50:01.223Z,6.63
2023-01-31T14:52:37.078Z,5.07
2023-01-31T14:55:23.356Z,5.10
2023-01-31T14:57:54.155Z,5.13
2023-01-31T15:00:26.548Z,5.68
2023-01-31T15:03:22.332Z,5.20
2023-01-31T15:06:17.484Z,5.60
2023-01-31T15:08:49.534Z,5.82
2023-01-31T15:11:41.907Z,5.57
2023-01-31T15:14:47.009Z,5.18
2023-01-31T15:17:35.669Z,5.53
2023-01-31T15:20:03.160Z,5.82
2023-01-31T15:22:30.751Z,5.25
2023-01-31T15:25:18.463Z,5.30
2023-01-31T15:27:47.485Z,6.13
2023-01-31T15:30:19.243Z,5.65
2023-01-31T15:32:57.660Z,5.57
2023-01-31T15:35:32.653Z,6.40
2023-01-31T15:38:22.349Z,6.25
2023-01-31T15:41:06.417Z,5.45
2023-01-31T15:43:33.071Z,5.57
2023-01-31T15:46:13.067Z,5.43
2023-01-31T15:48:43.028Z,5.50
2023-01-31T15:51:13.583Z,5.40
2023-01-31T15:53:41.392Z,7.75
2023-01-31T15:56:17.201Z,5.70
2023-01-31T15:58:48.301Z,5.85
2023-01-31T16:01:17.633Z,6.03
2023-01-31T16:03:54.604Z,5.65
2023-01-31T16:06:29.166Z,6.05
2023-01-31T16:09:01.444Z,5.38
2023-01-31T16:11:34.139Z,5.70
2023-01-31T16:14:07.735Z,6.00
2023-01-31T16:16:35.946Z,5.80
2023-01-31T16:19:03.714Z,5.70
2023-01-31T16:21:41.102Z,5.90
2023-01-31T16:24:19.525Z,6.35
2023-01-31T16:26:57.985Z,5.60
2023-01-31T16:29:39.283Z,7.20
2023-01-31T16:32:15.324Z,5.75
2023-01-31T16:34:42.403Z,6.82
2023-01-31T16:37:12.489Z,7.20
2023-01-31T16:39:50.722Z,6.78
2023-01-31T16:42:22.187Z,6.90
2023-01-31T16:44:49.423Z,7.65
2023-01-31T16:47:47.832Z,7.40
2023-01-31T16:50:17.344Z,8.75
2023-01-31T16:52:51.998Z,8.10
2023-01-31T16:55:21.798Z,7.00
2023-01-31T16:57:48.605Z,7.65
2023-01-31T17:00:24.491Z,8.07
2023-01-31T17:02:53.067Z,7.18
2023-01-31T17:05:24.770Z,8.18
2023-01-31T17:07:53.559Z,7.68
2023-01-31T17:10:23.543Z,7.93
2023-01-31T17:12:51.489Z,7.57
2023-01-31T17:15:20.322Z,8.15
2023-01-31T17:17:47.971Z,9.07
2023-01-31T17:20:16.970Z,7.57
2023-01-31T17:22:47.727Z,8.63
2023-01-31T17:25:26.626Z,9.27
2023-01-31T17:27:53.321Z,8.25
2023-01-31T17:30:21.138Z,8.13
2023-01-31T17:32:50.831Z,8.55
2023-01-31T17:35:20.834Z,8.70
2023-01-31T17:37:47.643Z,8.50
2023-01-31T17:40:14.436Z,9.02
2023-01-31T17:42:41.126Z,8.77
2023-01-31T17:45:14.026Z,8.20
2023-01-31T17:47:41.036Z,8.75
2023-01-31T17:50:13.661Z,9.57
2023-01-31T17:52:40.298Z,9.82
2023-01-31T17:55:07.334Z,10.02
2023-01-31T17:57:34.786Z,10.02
2023-01-31T18:00:01.491Z,10.32
2023-01-31T18:02:28.222Z,10.40
2023-01-31T18:04:54.832Z,9.63
2023-01-31T18:07:21.439Z,10.80
2023-01-31T18:09:48.029Z,11.20
2023-01-31T18:12:14.705Z,10.50
2023-01-31T18:14:41.408Z,10.35
2023-01-31T18:17:08.624Z,10.77
2023-01-31T18:19:35.355Z,9.57
2023-01-31T18:22:01.994Z,11.73
2023-01-31T18:24:28.649Z,10.18
2023-01-31T18:26:56.987Z,10.15
2023-01-31T18:29:26.126Z,10.38
2023-01-31T18:31:57.684Z,9.13
2023-01-31T18:34:24.962Z,9.98
2023-01-31T18:36:51.565Z,13.13
2023-01-31T18:39:18.205Z,9.60
2023-01-31T18:41:44.803Z,8.77
2023-01-31T18:44:11.440Z,7.55
2023-01-31T18:46:38.828Z,8.40
2023-01-31T18:49:05.550Z,9.07
2023-01-31T18:51:32.216Z,8.35
2023-01-31T18:53:58.814Z,8.80
2023-01-31T18:56:25.430Z,9.18
2023-01-31T18:58:52.484Z,8.65
2023-01-31T19:01:24.359Z,5.93
2023-01-31T19:03:52.937Z,8.50
2023-01-31T19:06:22.053Z,8.80
2023-01-31T19:08:50.476Z,8.82
2023-01-31T19:11:18.840Z,8.93
2023-01-31T19:13:45.915Z,8.55
2023-01-31T19:16:17.656Z,8.65
2023-01-31T19:18:44.450Z,9.98
2023-01-31T19:21:19.430Z,9.65
2023-01-31T19:23:46.937Z,6.47
2023-01-31T19:26:15.650Z,4.10
2023-01-31T19:28:42.589Z,2.67
2023-01-31T19:31:12.582Z,2.60
2023-01-31T19:33:40.055Z,2.97
2023-01-31T19:36:15.526Z,3.85
2023-01-31T19:38:42.339Z,3.13
2023-01-31T19:41:20.948Z,3.05
2023-01-31T19:43:52.170Z,3.70
2023-01-31T19:46:20.483Z,3.78
2023-01-31T19:48:47.121Z,3.95
2023-01-31T19:51:16.690Z,3.30
2023-01-31T19:53:45.224Z,4.13
2023-01-31T19:56:12.562Z,4.28
2023-01-31T19:58:39.405Z,3.60
2023-01-31T20:01:08.977Z,4.20
2023-01-31T20:03:35.814Z,3.92
2023-01-31T20:06:05.124Z,4.22
2023-01-31T20:08:31.997Z,4.43
2023-01-31T20:10:58.810Z,4.00
2023-01-31T20:13:25.794Z,4.57
2023-01-31T20:16:00.254Z,4.55
2023-01-31T20:18:27.341Z,5.50
2023-01-31T20:20:54.409Z,5.07
2023-01-31T20:23:21.338Z,5.70
2023-01-31T20:25:50.170Z,5.72
2023-01-31T20:28:17.914Z,6.03
2023-01-31T20:30:44.804Z,6.95
2023-01-31T20:33:12.375Z,6.45
2023-01-31T20:35:40.455Z,7.70
2023-01-31T20:38:08.187Z,7.68
2023-01-31T20:40:35.262Z,8.82
2023-01-31T20:43:01.919Z,9.95
2023-01-31T20:45:29.069Z,8.98
2023-01-31T20:47:56.667Z,8.48
2023-01-31T20:50:24.346Z,7.15
2023-01-31T20:52:53.727Z,9.25
2023-01-31T20:55:20.484Z,8.77
2023-01-31T20:57:50.005Z,10.23
2023-01-31T21:00:21.365Z,11.35
2023-01-31T21:02:49.189Z,9.80
2023-01-31T21:05:17.370Z,8.80
2023-01-31T21:07:44.832Z,8.77
2023-01-31T21:10:12.879Z,8.90
2023-01-31T21:12:39.670Z,9.27
2023-01-31T21:15:07.079Z,8.63
2023-01-31T21:17:39.955Z,7.85
2023-01-31T21:20:08.397Z,10.23
2023-01-31T21:22:35.246Z,8.50
2023-01-31T21:25:02.378Z,8.65
2023-01-31T21:27:29.117Z,9.93
2023-01-31T21:29:55.872Z,8.25
2023-01-31T21:32:22.658Z,8.43
2023-01-31T21:34:49.304Z,9.95
2023-01-31T21:37:15.887Z,9.20
2023-01-31T21:39:42.503Z,9.07
2023-01-31T21:42:16.634Z,10.60
2023-01-31T21:44:43.778Z,10.70
2023-01-31T21:47:10.865Z,9.68
2023-01-31T21:49:37.665Z,9.27
2023-01-31T21:52:05.516Z,9.20
2023-01-31T21:54:32.595Z,9.77
2023-01-31T21:56:59.238Z,9.45
2023-01-31T21:59:26.163Z,9.55
2023-01-31T22:01:52.877Z,11.30
2023-01-31T22:04:23.374Z,9.00
2023-01-31T22:06:50.905Z,8.82
2023-01-31T22:09:18.220Z,9.70
2023-01-31T22:11:47.472Z,8.93
2023-01-31T22:14:15.957Z,8.75
2023-01-31T22:16:43.131Z,9.13
2023-01-31T22:19:13.963Z,7.88
2023-01-31T22:21:42.096Z,7.30
2023-01-31T22:24:11.359Z,7.85
2023-01-31T22:26:43.565Z,8.57
2023-01-31T22:29:13.549Z,8.48
2023-01-31T22:31:40.444Z,8.25
2023-01-31T22:34:08.693Z,6.65
2023-01-31T22:36:35.397Z,8.63
2023-01-31T22:39:02.308Z,7.30
2023-01-31T22:41:29.015Z,6.50
2023-01-31T22:43:56.068Z,7.13
2023-01-31T22:46:25.023Z,7.05
2023-01-31T22:48:52.610Z,6.85
2023-01-31T22:51:22.005Z,7.28
2023-01-31T22:53:49.513Z,7.20
2023-01-31T22:56:21.944Z,7.25
2023-01-31T22:58:49.167Z,6.53
2023-01-31T23:01:22.121Z,6.35
2023-01-31T23:03:49.615Z,6.15
2023-01-31T23:06:17.756Z,7.00
2023-01-31T23:08:44.974Z,6.10
2023-01-31T23:11:14.547Z,6.35
2023-01-31T23:13:41.853Z,6.00
2023-01-31T23:16:10.313Z,6.63
2023-01-31T23:18:36.993Z,6.47
2023-01-31T23:21:08.689Z,5.93
2023-01-31T23:23:35.537Z,6.60
2023-01-31T23:26:03.047Z,6.15
2023-01-31T23:28:29.994Z,6.95
2023-01-31T23:30:56.962Z,6.93
2023-01-31T23:33:23.606Z,7.63
2023-01-31T23:35:50.915Z,5.93
2023-01-31T23:38:17.606Z,7.25
2023-01-31T23:40:44.214Z,6.70
2023-01-31T23:43:10.867Z,6.03
2023-01-31T23:45:37.509Z,5.82
2023-01-31T23:48:04.407Z,6.18
2023-01-31T23:50:30.976Z,7.10
2023-01-31T23:52:57.579Z,5.97
2023-01-31T23:55:24.251Z,7.15
2023-01-31T23:57:50.873Z,6.05
